Time;durP1;ratioP1;P1;durP2;ratioP2;P2;SDS_P1;SDS_P2;PMS_P1;PMS_P2;Temp;Humidity;BMP_temperature;BMP_pressure;BME280_temperature;BME280_humidity;BME280_pressure;Samples;Min_cycle;Max_cycle;Signal;HPM_P1;HPM_P2
2023/04/08 00:01:12;;;;;;;4.20;2.65;;;8.40;90.20;;;;;;5091260;28;20036;-66
2023/04/08 00:03:38;;;;;;;8.70;2.42;;;8.40;90.20;;;;;;5088230;28;20047;-66
2023/04/08 00:06:03;;;;;;;4.18;2.17;;;8.40;90.10;;;;;;5093117;28;20082;-67
2023/04/08 00:08:29;;;;;;;4.40;2.35;;;8.30;90.10;;;;;;5092722;28;20031;-66
2023/04/08 00:10:55;;;;;;;14.85;2.80;;;8.30;90.10;;;;;;5082399;28;20727;-66
2023/04/08 00:13:20;;;;;;;14.65;3.00;;;8.30;89.90;;;;;;5080381;28;20028;-65
2023/04/08 00:15:46;;;;;;;13.68;2.70;;;8.30;89.80;;;;;;5095788;28;20094;-66
2023/04/08 00:18:14;;;;;;;18.17;2.60;;;8.30;89.70;;;;;;5091904;28;20415;-65
2023/04/08 00:20:41;;;;;;;15.65;2.42;;;8.30;89.70;;;;;;5091732;28;20024;-65
2023/04/08 00:23:06;;;;;;;6.05;2.58;;;8.30;89.70;;;;;;5090146;28;20020;-64
2023/04/08 00:25:32;;;;;;;6.75;3.03;;;8.20;89.60;;;;;;5088367;28;20032;-65
2023/04/08 00:27:57;;;;;;;7.13;2.38;;;8.20;89.70;;;;;;5087265;28;20041;-65
2023/04/08 00:30:23;;;;;;;20.98;2.72;;;8.20;89.80;;;;;;5089218;28;20031;-66
2023/04/08 00:32:49;;;;;;;4.82;2.60;;;8.10;89.70;;;;;;5090747;28;20012;-64
2023/04/08 00:35:14;;;;;;;14.02;2.80;;;8.10;89.70;;;;;;5076386;28;20548;-65
2023/04/08 00:37:40;;;;;;;2.42;2.20;;;8.10;89.70;;;;;;5071158;28;20093;-66
2023/04/08 00:40:06;;;;;;;4.70;2.30;;;8.10;89.70;;;;;;5073992;28;20033;-65
2023/04/08 00:42:32;;;;;;;13.75;2.53;;;8.10;89.70;;;;;;5072499;28;20111;-65
2023/04/08 00:44:57;;;;;;;21.25;3.17;;;8.00;89.80;;;;;;5079764;28;20537;-64
2023/04/08 00:47:23;;;;;;;15.27;2.40;;;7.90;89.90;;;;;;5091439;28;20031;-66
2023/04/08 00:49:48;;;;;;;21.83;2.78;;;7.90;90.00;;;;;;5085765;28;20029;-65
2023/04/08 00:52:14;;;;;;;12.30;2.88;;;7.90;90.00;;;;;;5072200;28;20066;-66
2023/04/08 00:54:40;;;;;;;34.40;3.53;;;7.80;90.00;;;;;;5074710;28;20032;-65
2023/04/08 00:57:07;;;;;;;19.25;2.97;;;7.70;90.10;;;;;;5092093;28;20550;-67
2023/04/08 00:59:34;;;;;;;20.90;2.92;;;7.70;90.10;;;;;;5081715;28;20111;-67
2023/04/08 01:02:12;;;;;;;17.08;3.10;;;7.60;90.20;;;;;;5071812;28;20083;-66
2023/04/08 01:04:50;;;;;;;22.80;3.22;;;7.60;90.30;;;;;;5082025;28;20024;-65
2023/04/08 01:07:26;;;;;;;16.88;2.50;;;7.50;90.30;;;;;;5088411;28;20118;-66
2023/04/08 01:09:55;;;;;;;34.88;3.15;;;7.50;90.30;;;;;;5088457;28;20394;-65
2023/04/08 01:12:26;;;;;;;29.52;3.28;;;7.50;90.30;;;;;;5071600;28;20535;-65
2023/04/08 01:15:00;;;;;;;31.60;3.20;;;7.50;90.30;;;;;;5080382;28;20069;-65
2023/04/08 01:17:26;;;;;;;36.90;3.47;;;7.50;90.20;;;;;;5071889;28;20024;-65
2023/04/08 01:19:55;;;;;;;37.92;3.42;;;7.50;90.30;;;;;;5073656;28;20028;-65
2023/04/08 01:22:34;;;;;;;33.38;3.40;;;7.50;90.30;;;;;;5086877;28;20024;-66
2023/04/08 01:25:13;;;;;;;33.17;3.72;;;7.60;90.30;;;;;;5082577;28;20036;-66
2023/04/08 01:27:39;;;;;;;16.05;3.30;;;7.50;90.30;;;;;;5073007;28;20036;-65
2023/04/08 01:30:06;;;;;;;12.85;3.10;;;7.50;90.30;;;;;;5071791;28;20039;-65
2023/04/08 01:32:34;;;;;;;22.17;3.20;;;7.40;90.30;;;;;;5071447;28;20035;-65
2023/04/08 01:35:00;;;;;;;17.25;2.80;;;7.40;90.30;;;;;;5072049;28;20510;-64
2023/04/08 01:37:28;;;;;;;23.52;3.15;;;7.30;90.30;;;;;;5084981;28;20028;-64
2023/04/08 01:39:55;;;;;;;12.80;3.33;;;7.20;90.30;;;;;;5086361;28;20016;-64
2023/04/08 01:42:25;;;;;;;7.13;2.92;;;7.10;90.20;;;;;;5073783;28;20043;-65
2023/04/08 01:44:56;;;;;;;8.70;3.00;;;7.00;90.30;;;;;;5071137;28;20533;-65
2023/04/08 01:47:22;;;;;;;6.75;2.95;;;7.00;90.40;;;;;;5074996;28;20027;-64
2023/04/08 01:49:52;;;;;;;15.45;3.28;;;6.90;90.40;;;;;;5078138;28;20023;-65
2023/04/08 01:52:19;;;;;;;4.45;3.00;;;6.90;90.40;;;;;;5069535;28;20490;-65
2023/04/08 01:54:45;;;;;;;10.65;2.78;;;6.90;90.30;;;;;;5073020;28;20099;-66
2023/04/08 01:57:15;;;;;;;14.20;3.00;;;6.80;90.30;;;;;;5089653;28;20099;-66
2023/04/08 01:59:41;;;;;;;12.05;2.78;;;6.80;90.30;;;;;;5083952;28;20012;-65
2023/04/08 02:02:08;;;;;;;10.02;2.70;;;6.70;90.30;;;;;;5070932;28;20039;-65
2023/04/08 02:04:35;;;;;;;3.65;2.50;;;6.60;90.30;;;;;;5082642;28;20020;-64
2023/04/08 02:07:01;;;;;;;14.13;2.53;;;6.60;90.40;;;;;;5089891;28;20027;-65
2023/04/08 02:09:27;;;;;;;17.95;2.85;;;6.60;90.40;;;;;;5089430;28;20078;-67
2023/04/08 02:11:53;;;;;;;7.22;2.63;;;6.60;90.30;;;;;;5079269;28;20462;-67
2023/04/08 02:14:18;;;;;;;20.05;3.38;;;6.60;90.30;;;;;;5069948;28;20693;-66
2023/04/08 02:17:11;;;;;;;29.05;3.42;;;6.60;90.30;;;;;;5077296;28;20012;-66
2023/04/08 02:19:45;;;;;;;24.60;3.22;;;6.50;90.20;;;;;;5088061;28;20478;-66
2023/04/08 02:22:35;;;;;;;21.38;3.45;;;6.40;90.20;;;;;;5070758;28;20513;-66
2023/04/08 02:25:06;;;;;;;13.35;2.83;;;6.30;90.20;;;;;;5070624;28;20029;-66
2023/04/08 02:27:34;;;;;;;11.15;2.85;;;6.30;90.30;;;;;;5071406;28;20116;-67
2023/04/08 02:30:03;;;;;;;16.05;2.75;;;6.20;90.30;;;;;;5078930;28;20099;-67
2023/04/08 02:32:31;;;;;;;12.57;2.80;;;6.20;90.30;;;;;;5089009;28;20026;-66
2023/04/08 02:34:59;;;;;;;10.98;2.80;;;6.20;90.30;;;;;;5077555;28;20082;-66
2023/04/08 02:37:25;;;;;;;15.07;2.83;;;6.10;90.30;;;;;;5079191;28;20024;-66
2023/04/08 02:39:50;;;;;;;14.73;3.00;;;6.10;90.30;;;;;;5089579;28;20073;-65
2023/04/08 02:42:16;;;;;;;9.93;2.58;;;6.10;90.30;;;;;;5084240;28;20406;-66
2023/04/08 02:44:41;;;;;;;13.73;2.80;;;6.10;90.20;;;;;;5086534;28;20089;-66
2023/04/08 02:47:07;;;;;;;23.08;3.30;;;6.10;90.20;;;;;;5080671;28;20410;-66
2023/04/08 02:49:32;;;;;;;9.93;2.50;;;6.00;90.20;;;;;;5078520;28;20028;-66
2023/04/08 02:51:58;;;;;;;8.32;2.80;;;6.00;90.20;;;;;;5086694;28;20021;-67
2023/04/08 02:54:23;;;;;;;3.60;2.38;;;6.00;90.20;;;;;;5076439;28;20020;-67
2023/04/08 02:56:49;;;;;;;7.90;2.75;;;5.90;90.10;;;;;;5093380;28;20112;-65
2023/04/08 02:59:15;;;;;;;8.98;2.60;;;5.90;90.20;;;;;;5078266;28;20024;-64
2023/04/08 03:01:41;;;;;;;5.32;2.53;;;5.90;90.20;;;;;;5076608;28;20360;-66
2023/04/08 03:04:06;;;;;;;3.60;2.50;;;5.90;90.20;;;;;;5092305;28;20039;-66
2023/04/08 03:06:32;;;;;;;7.53;2.90;;;5.80;90.10;;;;;;5076274;28;20030;-66
2023/04/08 03:08:57;;;;;;;7.00;2.95;;;5.80;90.10;;;;;;5089377;28;20032;-66
2023/04/08 03:11:23;;;;;;;4.47;2.80;;;5.80;90.10;;;;;;5076387;28;20078;-66
2023/04/08 03:13:49;;;;;;;3.10;2.80;;;5.80;90.10;;;;;;5092054;28;20087;-67
2023/04/08 03:16:15;;;;;;;3.85;3.10;;;5.80;90.10;;;;;;5095981;28;20028;-66
2023/04/08 03:18:40;;;;;;;7.85;3.45;;;5.80;90.10;;;;;;5083201;28;20371;-67
2023/04/08 03:21:06;;;;;;;7.10;3.10;;;5.80;90.00;;;;;;5095522;28;20571;-66
2023/04/08 03:23:31;;;;;;;5.25;3.33;;;5.70;90.00;;;;;;5085319;28;20043;-66
2023/04/08 03:25:57;;;;;;;4.25;2.88;;;5.60;90.00;;;;;;5090691;28;20111;-66
2023/04/08 03:28:22;;;;;;;3.80;2.80;;;5.70;90.00;;;;;;5087573;28;20060;-65
2023/04/08 03:30:48;;;;;;;3.33;3.03;;;5.70;90.00;;;;;;5081289;28;20023;-67
2023/04/08 03:33:14;;;;;;;4.50;3.92;;;5.70;90.00;;;;;;5092289;28;20435;-67
2023/04/08 03:35:39;;;;;;;5.75;4.82;;;5.70;89.90;;;;;;5089201;28;20030;-68
2023/04/08 03:38:05;;;;;;;5.53;4.93;;;5.70;89.70;;;;;;5089788;28;20025;-66
2023/04/08 03:40:30;;;;;;;7.28;6.20;;;5.70;89.70;;;;;;5091748;28;20693;-66
2023/04/08 03:42:56;;;;;;;7.18;6.28;;;5.80;89.70;;;;;;5093216;28;20460;-65
2023/04/08 03:45:22;;;;;;;8.30;6.95;;;5.80;89.60;;;;;;5076280;28;20518;-68
2023/04/08 03:47:47;;;;;;;8.77;7.88;;;5.80;89.50;;;;;;5076243;28;20020;-66
2023/04/08 03:50:13;;;;;;;9.30;8.10;;;5.90;89.50;;;;;;5081928;28;20089;-66
2023/04/08 03:52:38;;;;;;;9.90;8.50;;;5.90;89.60;;;;;;5096505;28;20020;-66
2023/04/08 03:55:04;;;;;;;10.63;8.90;;;5.90;89.60;;;;;;5083221;28;20103;-66
2023/04/08 03:57:29;;;;;;;10.75;9.13;;;6.00;89.70;;;;;;5076414;28;20096;-66
2023/04/08 03:59:55;;;;;;;10.45;9.05;;;6.00;89.70;;;;;;5079102;28;20028;-66
2023/04/08 04:02:21;;;;;;;12.32;9.88;;;6.00;89.60;;;;;;5092172;28;20059;-66
2023/04/08 04:04:46;;;;;;;12.20;10.38;;;6.00;89.60;;;;;;5091011;28;20394;-67
2023/04/08 04:07:12;;;;;;;11.65;9.93;;;6.00;90.10;;;;;;5091066;28;20020;-65
2023/04/08 04:09:37;;;;;;;10.98;9.32;;;6.00;89.60;;;;;;5091445;28;20055;-65
2023/04/08 04:12:03;;;;;;;12.38;10.43;;;5.90;89.60;;;;;;5092616;28;20020;-67
2023/04/08 04:14:28;;;;;;;12.40;9.70;;;5.90;89.60;;;;;;5092407;28;20490;-66
2023/04/08 04:16:54;;;;;;;10.82;8.70;;;5.90;89.50;;;;;;5077647;28;20290;-67
2023/04/08 04:19:19;;;;;;;11.40;8.73;;;5.90;90.10;;;;;;5085542;28;20032;-66
2023/04/08 04:21:45;;;;;;;10.77;9.32;;;5.90;89.50;;;;;;5092184;28;20107;-68
2023/04/08 04:24:12;;;;;;;11.57;9.23;;;5.90;89.50;;;;;;5087286;28;20066;-65
2023/04/08 04:26:39;;;;;;;9.50;8.20;;;5.90;89.60;;;;;;5081059;28;20390;-66
2023/04/08 04:29:05;;;;;;;10.98;8.57;;;5.80;89.40;;;;;;5075271;28;20174;-67
2023/04/08 04:31:30;;;;;;;10.18;8.50;;;5.80;89.40;;;;;;5072557;28;20108;-67
2023/04/08 04:33:56;;;;;;;10.13;8.10;;;5.80;89.40;;;;;;5074338;28;20016;-66
2023/04/08 04:36:21;;;;;;;10.48;8.40;;;5.70;89.20;;;;;;5082393;28;20036;-67
2023/04/08 04:38:48;;;;;;;9.57;8.32;;;5.70;89.90;;;;;;5076380;28;20020;-66
2023/04/08 04:41:14;;;;;;;10.15;8.48;;;5.70;89.60;;;;;;5083455;28;20032;-67
2023/04/08 04:43:40;;;;;;;10.60;8.27;;;5.70;89.20;;;;;;5092525;28;20537;-66
2023/04/08 04:46:07;;;;;;;9.32;7.95;;;5.60;89.10;;;;;;5085145;28;20044;-66
2023/04/08 04:48:34;;;;;;;9.93;8.40;;;5.60;89.10;;;;;;5074783;28;20074;-68
2023/04/08 04:51:01;;;;;;;12.23;9.50;;;5.60;89.20;;;;;;5074973;28;20023;-66
2023/04/08 04:53:27;;;;;;;10.35;8.88;;;5.70;89.20;;;;;;5072120;28;20035;-66
2023/04/08 04:55:53;;;;;;;11.32;9.02;;;5.70;89.20;;;;;;5073841;28;20013;-67
2023/04/08 04:58:18;;;;;;;11.13;9.05;;;5.60;89.00;;;;;;5090226;28;20048;-69
2023/04/08 05:00:45;;;;;;;11.30;9.23;;;5.60;89.00;;;;;;5083778;28;20028;-68
2023/04/08 05:03:11;;;;;;;11.75;9.77;;;5.70;89.00;;;;;;5089389;28;20058;-66
2023/04/08 05:05:37;;;;;;;11.20;9.20;;;5.70;88.80;;;;;;5082128;28;20036;-66
2023/04/08 05:08:03;;;;;;;11.20;8.95;;;5.70;88.80;;;;;;5073900;28;20086;-67
2023/04/08 05:10:28;;;;;;;11.40;8.95;;;5.70;88.70;;;;;;5078927;28;20024;-67
2023/04/08 05:12:54;;;;;;;10.23;8.25;;;5.70;88.60;;;;;;5071895;28;20043;-67
2023/04/08 05:15:20;;;;;;;11.30;8.82;;;5.70;88.60;;;;;;5077694;28;20436;-68
2023/04/08 05:17:45;;;;;;;10.15;8.57;;;5.70;88.60;;;;;;5084687;28;20012;-67
2023/04/08 05:20:11;;;;;;;9.77;7.93;;;5.70;88.50;;;;;;5082987;28;20612;-69
2023/04/08 05:22:37;;;;;;;10.93;8.40;;;5.80;88.50;;;;;;5077678;28;20506;-67
2023/04/08 05:25:03;;;;;;;10.00;8.27;;;5.80;88.30;;;;;;5082641;28;20444;-67
2023/04/08 05:27:29;;;;;;;10.07;8.65;;;5.80;88.20;;;;;;5082748;28;20020;-67
2023/04/08 05:29:55;;;;;;;9.80;8.25;;;5.90;88.70;;;;;;5081292;28;20028;-67
2023/04/08 05:32:20;;;;;;;11.57;8.35;;;6.00;88.20;;;;;;5089293;28;20027;-67
2023/04/08 05:34:46;;;;;;;9.68;8.45;;;6.60;88.10;;;;;;5090325;28;20020;-66
2023/04/08 05:37:11;;;;;;;9.90;8.75;;;7.40;86.50;;;;;;5086180;28;20390;-67
2023/04/08 05:39:37;;;;;;;11.82;8.70;;;8.20;84.20;;;;;;5083815;28;20616;-67
2023/04/08 05:42:03;;;;;;;11.10;8.95;;;8.60;81.60;;;;;;5090034;28;20095;-66
2023/04/08 05:44:28;;;;;;;9.10;7.50;;;8.90;80.10;;;;;;5091045;28;20042;-66
2023/04/08 05:46:54;;;;;;;8.82;7.25;;;8.90;79.20;;;;;;5085657;28;20069;-67
2023/04/08 05:49:20;;;;;;;8.50;7.43;;;8.70;79.00;;;;;;5071803;28;20036;-67
2023/04/08 05:51:46;;;;;;;7.85;6.75;;;8.60;79.00;;;;;;5073366;28;20020;-67
2023/04/08 05:54:11;;;;;;;7.80;6.65;;;8.40;79.30;;;;;;5087440;28;20360;-67
2023/04/08 05:56:37;;;;;;;8.20;7.22;;;8.40;79.60;;;;;;5082108;28;20112;-67
2023/04/08 05:59:02;;;;;;;9.00;7.20;;;8.90;79.70;;;;;;5087636;28;20123;-66
2023/04/08 06:01:28;;;;;;;11.00;6.88;;;9.80;78.50;;;;;;5083478;28;20504;-67
2023/04/08 06:03:55;;;;;;;9.45;7.47;;;10.90;75.80;;;;;;5088952;28;20020;-65
2023/04/08 06:06:21;;;;;;;8.32;7.10;;;11.80;73.00;;;;;;5072334;28;20048;-66
2023/04/08 06:08:47;;;;;;;9.13;7.30;;;12.60;70.80;;;;;;5074038;28;20032;-66
2023/04/08 06:11:12;;;;;;;7.43;6.55;;;13.30;68.60;;;;;;5084328;28;20427;-67
2023/04/08 06:13:38;;;;;;;8.02;6.72;;;13.90;67.00;;;;;;5088018;28;20669;-68
2023/04/08 06:16:15;;;;;;;7.55;6.38;;;14.60;65.40;;;;;;5082689;28;20020;-67
2023/04/08 06:18:41;;;;;;;7.95;6.80;;;15.20;63.10;;;;;;5074114;28;20024;-68
2023/04/08 06:21:07;;;;;;;8.52;6.93;;;15.70;61.90;;;;;;5087527;28;20432;-67
2023/04/08 06:23:32;;;;;;;7.22;6.03;;;16.10;60.30;;;;;;5077336;28;20098;-66
2023/04/08 06:25:58;;;;;;;8.23;6.28;;;16.50;59.60;;;;;;5081494;28;20052;-66
2023/04/08 06:28:24;;;;;;;7.60;6.05;;;16.80;58.00;;;;;;5082179;28;20111;-66
2023/04/08 06:30:49;;;;;;;8.10;7.15;;;17.30;57.60;;;;;;5081755;28;20069;-67
2023/04/08 06:33:15;;;;;;;6.00;5.28;;;17.70;56.80;;;;;;5075636;28;20395;-68
2023/04/08 06:35:40;;;;;;;6.20;5.45;;;18.00;56.10;;;;;;5086845;28;20028;-64
2023/04/08 06:38:06;;;;;;;5.50;4.82;;;18.30;55.30;;;;;;5082474;28;20024;-66
2023/04/08 06:40:32;;;;;;;6.25;5.20;;;18.70;55.00;;;;;;5087464;28;20035;-66
2023/04/08 06:42:57;;;;;;;6.53;5.03;;;18.90;54.00;;;;;;5073936;28;20608;-67
2023/04/08 06:45:23;;;;;;;9.75;6.22;;;19.40;53.60;;;;;;5085209;28;20588;-66
2023/04/08 06:47:48;;;;;;;7.88;6.47;;;19.80;52.40;;;;;;5083554;28;20024;-66
2023/04/08 06:50:14;;;;;;;5.45;4.82;;;19.80;52.00;;;;;;5084408;28;20031;-67
2023/04/08 06:52:40;;;;;;;6.03;4.82;;;20.20;51.80;;;;;;5083367;28;20113;-66
2023/04/08 06:55:06;;;;;;;5.15;4.60;;;20.50;50.80;;;;;;5080031;28;20031;-65
2023/04/08 06:57:31;;;;;;;5.38;4.20;;;20.80;50.10;;;;;;5089203;28;20031;-66
2023/04/08 06:59:57;;;;;;;6.45;5.80;;;21.10;49.90;;;;;;5088304;28;20024;-66
2023/04/08 07:02:23;;;;;;;6.00;4.78;;;21.40;49.10;;;;;;5086141;28;20032;-66
2023/04/08 07:04:48;;;;;;;5.82;4.40;;;21.70;48.60;;;;;;5086915;28;20103;-66
2023/04/08 07:07:14;;;;;;;6.28;4.35;;;21.90;48.30;;;;;;5088978;28;20028;-66
2023/04/08 07:09:42;;;;;;;7.53;5.70;;;21.90;47.20;;;;;;5080743;28;20037;-65
2023/04/08 07:12:07;;;;;;;9.35;6.60;;;21.50;47.20;;;;;;5087057;28;20019;-65
2023/04/08 07:14:33;;;;;;;5.63;5.03;;;21.50;46.70;;;;;;5078813;28;20067;-66
2023/04/08 07:16:59;;;;;;;6.50;5.18;;;21.50;46.50;;;;;;5085214;28;20020;-67
2023/04/08 07:19:24;;;;;;;8.10;6.10;;;21.50;46.80;;;;;;5077818;28;20440;-65
2023/04/08 07:21:51;;;;;;;6.53;5.82;;;22.00;46.40;;;;;;5086667;28;20024;-65
2023/04/08 07:24:17;;;;;;;4.75;3.95;;;22.20;45.50;;;;;;5077055;28;20458;-66
2023/04/08 07:26:43;;;;;;;5.78;3.85;;;22.70;45.50;;;;;;5080121;28;20387;-66
2023/04/08 07:29:08;;;;;;;6.25;4.97;;;23.10;45.00;;;;;;5082996;28;20035;-65
2023/04/08 07:31:34;;;;;;;6.03;5.40;;;23.20;44.30;;;;;;5084153;28;20020;-66
2023/04/08 07:34:00;;;;;;;6.20;5.35;;;23.00;43.40;;;;;;5081675;28;20074;-65
2023/04/08 07:36:25;;;;;;;6.78;5.18;;;22.30;42.20;;;;;;5082121;28;20028;-66
2023/04/08 07:38:51;;;;;;;7.03;5.60;;;21.80;42.80;;;;;;5074086;28;20025;-66
2023/04/08 07:41:16;;;;;;;5.15;4.35;;;21.30;42.80;;;;;;5070547;28;20060;-66
2023/04/08 07:43:42;;;;;;;7.10;6.10;;;21.30;44.40;;;;;;5080501;28;20085;-67
2023/04/08 07:46:08;;;;;;;6.07;5.03;;;21.50;44.10;;;;;;5087062;28;20401;-66
2023/04/08 07:48:34;;;;;;;6.28;4.72;;;21.70;43.90;;;;;;5089053;28;20422;-67
2023/04/08 07:51:07;;;;;;;4.80;4.20;;;21.40;44.10;;;;;;5091892;28;20028;-67
2023/04/08 07:53:34;;;;;;;5.68;4.82;;;22.20;43.80;;;;;;5092482;28;20643;-66
2023/04/08 07:56:00;;;;;;;5.13;3.97;;;22.60;42.80;;;;;;5091555;28;20023;-66
2023/04/08 07:58:25;;;;;;;5.85;4.65;;;23.10;42.90;;;;;;5091312;28;20044;-68
2023/04/08 08:00:52;;;;;;;4.70;4.20;;;22.90;42.40;;;;;;5093306;28;20100;-67
2023/04/08 08:03:17;;;;;;;5.00;4.40;;;23.10;42.60;;;;;;5079187;28;20067;-67
2023/04/08 08:05:43;;;;;;;5.75;4.50;;;23.00;42.50;;;;;;5087428;28;20042;-65
2023/04/08 08:08:12;;;;;;;5.72;5.00;;;23.00;42.40;;;;;;5091516;28;20726;-66
2023/04/08 08:10:38;;;;;;;5.28;4.10;;;23.10;42.20;;;;;;5074018;28;20017;-66
2023/04/08 08:13:05;;;;;;;4.28;3.88;;;23.00;42.30;;;;;;5086316;28;20036;-67
2023/04/08 08:15:30;;;;;;;6.15;5.15;;;22.80;42.60;;;;;;5083375;28;20429;-66
2023/04/08 08:17:56;;;;;;;6.00;4.38;;;22.40;42.70;;;;;;5085683;28;20082;-66
2023/04/08 08:20:22;;;;;;;6.20;4.75;;;22.20;43.30;;;;;;5090811;28;20043;-65
2023/04/08 08:22:47;;;;;;;5.30;4.30;;;21.80;43.60;;;;;;5092122;28;20073;-65
2023/04/08 08:25:13;;;;;;;5.25;4.75;;;20.70;44.70;;;;;;5090125;28;20039;-65
2023/04/08 08:27:40;;;;;;;5.88;4.85;;;19.10;46.90;;;;;;5084029;28;20024;-67
2023/04/08 08:30:07;;;;;;;6.63;4.75;;;18.00;49.10;;;;;;5092494;28;20020;-65
2023/04/08 08:32:32;;;;;;;5.63;4.95;;;17.20;51.00;;;;;;5090973;28;20017;-66
2023/04/08 08:34:58;;;;;;;6.50;5.40;;;16.50;52.20;;;;;;5089195;28;20016;-65
2023/04/08 08:37:24;;;;;;;7.07;5.60;;;16.00;53.20;;;;;;5090825;28;20028;-65
2023/04/08 08:39:49;;;;;;;6.78;5.80;;;15.50;54.20;;;;;;5089559;28;20016;-65
2023/04/08 08:42:22;;;;;;;6.30;5.60;;;15.00;55.20;;;;;;5086876;28;20113;-68
2023/04/08 08:44:48;;;;;;;7.53;5.97;;;14.30;57.00;;;;;;5082514;28;20028;-65
2023/04/08 08:47:15;;;;;;;6.20;5.30;;;13.80;58.80;;;;;;5086558;28;20410;-66
2023/04/08 08:49:41;;;;;;;5.95;5.13;;;13.60;60.20;;;;;;5090468;28;20047;-65
2023/04/08 08:52:07;;;;;;;8.07;5.80;;;13.40;61.00;;;;;;5089139;28;20053;-65
2023/04/08 08:54:33;;;;;;;8.13;6.38;;;13.20;61.70;;;;;;5089619;28;20016;-65
2023/04/08 08:56:58;;;;;;;8.00;6.45;;;13.00;62.10;;;;;;5090861;28;20390;-66
2023/04/08 08:59:24;;;;;;;8.00;5.82;;;12.80;62.80;;;;;;5084511;28;20168;-67
2023/04/08 09:01:50;;;;;;;7.13;5.60;;;12.90;63.10;;;;;;5083292;28;20032;-67
2023/04/08 09:04:18;;;;;;;6.82;5.97;;;12.70;62.80;;;;;;5084357;28;20035;-67
2023/04/08 09:06:49;;;;;;;6.63;5.35;;;12.70;63.00;;;;;;5085480;28;20025;-67
2023/04/08 09:09:16;;;;;;;6.70;5.93;;;12.60;63.30;;;;;;5084269;28;20045;-66
2023/04/08 09:11:43;;;;;;;6.57;5.20;;;12.70;63.30;;;;;;5082784;28;20278;-66
2023/04/08 09:14:25;;;;;;;6.63;5.60;;;12.60;63.30;;;;;;5086223;28;20024;-65
2023/04/08 09:16:51;;;;;;;7.60;6.60;;;12.60;63.40;;;;;;5091503;28;20367;-67
2023/04/08 09:19:17;;;;;;;7.72;6.75;;;12.60;63.10;;;;;;5089665;28;20321;-68
2023/04/08 09:21:43;;;;;;;8.70;7.45;;;12.60;63.10;;;;;;5092531;28;20031;-66
2023/04/08 09:24:26;;;;;;;9.65;7.15;;;12.60;63.00;;;;;;5092138;28;20390;-68
2023/04/08 09:26:51;;;;;;;9.15;7.18;;;12.50;63.00;;;;;;5096120;28;20040;-66
2023/04/08 09:29:17;;;;;;;8.48;7.30;;;12.50;63.10;;;;;;5086252;28;20028;-67
2023/04/08 09:31:43;;;;;;;7.03;6.32;;;12.50;63.20;;;;;;5086884;28;20020;-69
2023/04/08 09:34:15;;;;;;;8.05;7.00;;;12.50;63.50;;;;;;5086332;28;20403;-66
2023/04/08 09:36:43;;;;;;;7.97;6.88;;;12.60;63.60;;;;;;5083878;28;20031;-67
2023/04/08 09:39:09;;;;;;;8.57;7.40;;;12.60;63.40;;;;;;5082888;28;20031;-67
2023/04/08 09:41:36;;;;;;;9.55;7.97;;;12.70;63.20;;;;;;5082553;28;20035;-66
2023/04/08 09:44:04;;;;;;;7.80;6.55;;;12.70;62.40;;;;;;5081377;28;20032;-68
2023/04/08 09:46:48;;;;;;;8.00;7.05;;;12.70;62.90;;;;;;5085037;28;20051;-69
2023/04/08 09:49:50;;;;;;;8.02;6.50;;;12.80;63.00;;;;;;5076705;28;20101;-69
2023/04/08 09:52:21;;;;;;;9.38;7.85;;;13.00;63.40;;;;;;5077666;28;20111;-69
2023/04/08 09:55:03;;;;;;;8.65;7.60;;;13.10;63.20;;;;;;5083060;28;20031;-69
2023/04/08 09:57:46;;;;;;;9.50;8.50;;;13.20;62.80;;;;;;5082534;28;20024;-69
2023/04/08 10:00:15;;;;;;;8.77;7.47;;;13.20;62.00;;;;;;5084767;28;20066;-69
2023/04/08 10:03:17;;;;;;;11.07;7.97;;;13.20;62.00;;;;;;5082284;28;20505;-68
2023/04/08 10:05:45;;;;;;;8.32;7.20;;;13.20;62.30;;;;;;5083960;28;20031;-71
2023/04/08 10:08:12;;;;;;;10.75;8.82;;;13.20;61.00;;;;;;5083437;28;20025;-70
2023/04/08 10:10:39;;;;;;;10.82;8.77;;;13.20;60.20;;;;;;5083479;28;20031;-69
2023/04/08 10:13:06;;;;;;;9.55;8.07;;;13.20;60.20;;;;;;5086903;28;20044;-68
2023/04/08 10:15:33;;;;;;;9.05;8.02;;;13.30;60.60;;;;;;5084831;28;20023;-70
2023/04/08 10:18:01;;;;;;;8.68;7.38;;;13.40;60.50;;;;;;5079538;28;20162;-69
2023/04/08 10:20:33;;;;;;;9.32;7.80;;;13.60;60.30;;;;;;5078115;28;20531;-68
2023/04/08 10:23:10;;;;;;;10.85;8.63;;;13.70;60.30;;;;;;5083661;28;20065;-70
2023/04/08 10:25:40;;;;;;;9.80;7.60;;;13.90;59.90;;;;;;5078261;28;20024;-71
2023/04/08 10:28:17;;;;;;;10.60;7.43;;;14.00;59.40;;;;;;5085478;28;20074;-68
2023/04/08 10:30:54;;;;;;;9.40;7.32;;;14.10;58.50;;;;;;5083140;28;20027;-67
2023/04/08 10:33:28;;;;;;;8.50;7.22;;;14.20;57.70;;;;;;5083735;28;20031;-69
2023/04/08 10:36:08;;;;;;;8.95;7.30;;;14.20;57.60;;;;;;5078220;28;20020;-69
2023/04/08 10:38:34;;;;;;;8.27;7.20;;;14.30;57.40;;;;;;5081838;28;20033;-69
2023/04/08 10:41:00;;;;;;;7.70;6.68;;;14.30;57.70;;;;;;5082241;28;20028;-68
2023/04/08 10:43:30;;;;;;;9.50;8.30;;;14.40;57.90;;;;;;5085436;28;20375;-68
2023/04/08 10:45:56;;;;;;;9.88;7.00;;;14.30;57.20;;;;;;5085093;28;20781;-68
2023/04/08 10:48:27;;;;;;;7.50;6.70;;;14.20;57.70;;;;;;5083803;28;20095;-69
2023/04/08 10:50:58;;;;;;;8.75;7.60;;;14.30;58.20;;;;;;5084425;28;20016;-69
2023/04/08 10:53:34;;;;;;;7.80;6.82;;;14.40;58.20;;;;;;5084359;28;20496;-69
2023/04/08 10:56:12;;;;;;;10.68;7.10;;;14.50;57.90;;;;;;5084152;28;20429;-69
2023/04/08 10:58:48;;;;;;;8.35;6.72;;;14.50;57.50;;;;;;5085885;28;20035;-69
2023/04/08 11:01:14;;;;;;;7.70;6.93;;;14.70;57.60;;;;;;5082792;28;20483;-69
2023/04/08 11:03:41;;;;;;;6.97;6.10;;;14.70;57.20;;;;;;5085224;28;20028;-70
2023/04/08 11:06:07;;;;;;;7.35;6.22;;;14.70;56.50;;;;;;5083944;28;20032;-68
2023/04/08 11:08:35;;;;;;;7.90;6.55;;;14.80;56.30;;;;;;5085960;28;20077;-68
2023/04/08 11:11:01;;;;;;;8.48;7.25;;;14.70;56.40;;;;;;5084230;28;20013;-68
2023/04/08 11:13:27;;;;;;;6.35;5.65;;;14.70;56.10;;;;;;5086821;28;20036;-68
2023/04/08 11:15:54;;;;;;;9.55;8.15;;;14.80;56.40;;;;;;5083488;28;20031;-67
2023/04/08 11:18:21;;;;;;;8.65;7.03;;;14.70;54.30;;;;;;5086985;28;20024;-69
2023/04/08 11:20:50;;;;;;;6.10;5.38;;;14.40;54.90;;;;;;5086923;28;20512;-69
2023/04/08 11:23:16;;;;;;;8.07;6.80;;;14.50;55.80;;;;;;5085529;28;20032;-70
2023/04/08 11:25:43;;;;;;;6.80;5.82;;;14.60;54.60;;;;;;5085816;28;20024;-70
2023/04/08 11:28:09;;;;;;;8.18;6.50;;;14.70;54.60;;;;;;5085090;28;20039;-69
2023/04/08 11:30:35;;;;;;;7.00;6.00;;;14.70;54.00;;;;;;5088447;28;20028;-69
2023/04/08 11:33:01;;;;;;;6.43;5.20;;;14.80;54.00;;;;;;5087418;28;20038;-69
2023/04/08 11:35:30;;;;;;;7.22;5.72;;;15.00;54.10;;;;;;5087927;28;20028;-68
2023/04/08 11:37:57;;;;;;;6.40;5.50;;;15.00;53.40;;;;;;5094015;28;20547;-69
2023/04/08 11:40:23;;;;;;;6.32;4.97;;;15.10;53.30;;;;;;5089882;28;20085;-68
2023/04/08 11:42:49;;;;;;;7.70;5.80;;;15.30;53.20;;;;;;5089632;28;20031;-70
2023/04/08 11:45:17;;;;;;;6.47;4.70;;;15.20;52.40;;;;;;5089511;28;20090;-69
2023/04/08 11:47:46;;;;;;;7.53;6.13;;;15.30;52.60;;;;;;5089777;28;20077;-70
2023/04/08 11:50:11;;;;;;;6.95;5.45;;;15.10;52.00;;;;;;5087153;28;20028;-69
2023/04/08 11:52:44;;;;;;;8.27;5.80;;;15.10;52.60;;;;;;5088583;28;20035;-69
2023/04/08 11:55:11;;;;;;;6.60;5.50;;;15.00;51.60;;;;;;5087244;28;20085;-70
2023/04/08 11:57:37;;;;;;;6.82;5.75;;;14.90;52.30;;;;;;5088001;28;20020;-69
2023/04/08 12:00:05;;;;;;;7.97;5.70;;;14.80;52.20;;;;;;5088933;28;20414;-70
2023/04/08 12:02:30;;;;;;;7.25;5.47;;;14.80;52.30;;;;;;5086361;28;20020;-69
2023/04/08 12:04:56;;;;;;;6.93;5.97;;;14.70;51.60;;;;;;5086608;28;20483;-69
2023/04/08 12:07:21;;;;;;;6.55;5.75;;;14.80;51.90;;;;;;5084946;28;20244;-69
2023/04/08 12:09:47;;;;;;;7.57;5.68;;;14.80;51.40;;;;;;5089748;28;20020;-69
2023/04/08 12:12:13;;;;;;;6.53;5.50;;;14.80;51.50;;;;;;5088648;28;20081;-69
2023/04/08 12:14:38;;;;;;;6.85;5.15;;;14.80;51.80;;;;;;5089449;28;20058;-68
2023/04/08 12:17:04;;;;;;;6.30;5.68;;;14.80;52.00;;;;;;5087239;28;20622;-69
2023/04/08 12:19:29;;;;;;;5.65;4.53;;;14.90;52.10;;;;;;5088870;28;20509;-69
2023/04/08 12:21:55;;;;;;;6.43;5.72;;;15.00;52.60;;;;;;5087445;28;20048;-68
2023/04/08 12:24:20;;;;;;;8.10;6.60;;;15.00;52.70;;;;;;5088604;28;20650;-69
2023/04/08 12:26:46;;;;;;;7.38;6.18;;;15.10;53.00;;;;;;5087395;28;20040;-69
2023/04/08 12:29:12;;;;;;;6.93;5.88;;;15.30;52.80;;;;;;5087198;28;20039;-69
2023/04/08 12:31:37;;;;;;;6.45;5.72;;;15.40;52.80;;;;;;5089169;28;20016;-69
2023/04/08 12:34:03;;;;;;;7.22;6.28;;;15.50;53.00;;;;;;5088442;28;20093;-69
2023/04/08 12:36:28;;;;;;;9.07;6.80;;;15.40;50.80;;;;;;5087393;28;20021;-69
2023/04/08 12:38:54;;;;;;;9.18;6.15;;;15.20;51.30;;;;;;5089598;28;20027;-69
2023/04/08 12:41:20;;;;;;;7.70;5.53;;;15.00;50.80;;;;;;5084853;28;20028;-69
2023/04/08 12:43:46;;;;;;;5.47;4.60;;;15.20;51.00;;;;;;5086513;28;20691;-69
2023/04/08 12:46:12;;;;;;;6.78;4.75;;;15.20;49.00;;;;;;5086901;28;20043;-68
2023/04/08 12:48:37;;;;;;;5.82;4.65;;;15.40;49.00;;;;;;5088556;28;20016;-69